CheckWX is a tool to help pilots better visualize weather data.  It is not intended as a substitute for an official pre-flight weather briefing.

14:34:53 UTC

KGCN METAR
Grand Canyon National Park Airport
Grand Canyon, Arizona, USA
Current

41 mins ago

KGCN 281354Z 00000KT 10SM CLR M10/M12 A3013 RMK AO2 SLP234 I1000 T11001122
Observed
Mar-28 @ 13:54 UTC
Visibility
10 SM
Flight Rules
VFR
Cloud Levels
  • Clear skies
Temperature
-10°C / 14°F
Dewpoint
-12°C / 10°F
Humidity
85%
Altimeter
30.13" Hg
Pressure
1020.32 hPa
Previous

2 hours ago

KGCN 281254Z AUTO 00000KT 10SM CLR M12/M14 A3012 RMK AO2 SLP233 I1000 T11221139
Observed
Mar-28 @ 12:54 UTC
Visibility
10 SM
Flight Rules
VFR
Cloud Levels
  • Clear skies
Temperature
-12°C / 10°F
Dewpoint
-14°C / 7°F
Humidity
85%
Altimeter
30.12" Hg
Pressure
1020.02 hPa
Previous

3 hours ago

KGCN 281154Z AUTO 00000KT 10SM CLR M12/M13 A3011 RMK AO2 SLP225 70004 I1000 I6001 T11171133 11061 21122 53007
Observed
Mar-28 @ 11:54 UTC
Visibility
10 SM
Flight Rules
VFR
Cloud Levels
  • Clear skies
Temperature
-12°C / 10°F
Dewpoint
-13°C / 9°F
Humidity
92%
Altimeter
30.11" Hg
Pressure
1019.62 hPa
24 Hour Rain
0.04"